Time;durP1;ratioP1;P1;durP2;ratioP2;P2;SDS_P1;SDS_P2;PMS_P1;PMS_P2;Temp;Humidity;BMP_temperature;BMP_pressure;BME280_temperature;BME280_humidity;BME280_pressure;Samples;Min_cycle;Max_cycle;Signal;HPM_P1;HPM_P2
2021/03/25 00:01:02;;;;;;;21.30;13.38;;;;;;;5.25;57.77;100289.41;5083215;28;34645;-93
2021/03/25 00:04:13;;;;;;;24.17;12.90;;;;;;;4.92;58.39;100293.31;5100285;28;34037;-94
2021/03/25 00:08:14;;;;;;;27.13;14.27;;;;;;;5.22;57.44;100286.19;5038360;28;33717;-89
2021/03/25 00:12:36;;;;;;;24.08;14.15;;;;;;;4.94;58.20;100288.69;5018394;28;34098;-88
2021/03/25 00:16:09;;;;;;;24.63;15.02;;;;;;;4.71;59.14;100296.09;4964685;28;20122;-92
2021/03/25 00:20:00;;;;;;;24.00;14.23;;;;;;;4.47;59.94;100288.37;4936986;29;32924;-89
2021/03/25 00:23:25;;;;;;;25.67;14.32;;;;;;;4.42;60.44;100286.12;4932952;28;33278;-93
2021/03/25 00:26:57;;;;;;;24.02;14.73;;;;;;;4.73;59.74;100294.97;4955923;28;35468;-89
2021/03/25 00:30:41;;;;;;;30.48;15.10;;;;;;;4.42;60.53;100286.97;4956113;28;33970;-89
2021/03/25 00:34:41;;;;;;;;;;;;;;;;;;;;;
2021/03/25 00:38:23;;;;;;;23.23;13.32;;;;;;;4.72;59.20;100295.09;4972488;28;36489;-92
2021/03/25 00:42:28;;;;;;;;;;;;;;;;;;;;;
2021/03/25 00:49:39;;;;;;;22.42;13.05;;;;;;;4.69;59.77;100288.19;5062118;27;34657;-89
2021/03/25 00:56:59;;;;;;;23.80;14.55;;;;;;;4.65;60.17;100286.75;5101783;28;35058;-89
2021/03/25 01:01:00;;;;;;;21.65;12.98;;;;;;;4.98;59.07;100287.41;5099786;28;34077;-89
2021/03/25 01:05:00;;;;;;;22.48;13.10;;;;;;;4.99;58.84;100289.09;5133854;27;20146;-93
2021/03/25 01:17:32;;;;;;;23.35;13.68;;;;;;;4.84;59.74;100279.78;4970587;28;34357;-94
2021/03/25 01:26:28;;;;;;;22.52;13.30;;;;;;;4.53;60.99;100285.16;4975613;28;34297;-88
2021/03/25 01:30:57;;;;;;;21.00;12.95;;;;;;;4.44;61.34;100275.28;4957344;28;34249;-91
2021/03/25 01:34:39;;;;;;;22.25;12.88;;;;;;;4.52;61.04;100275.44;4966261;28;34030;-90
2021/03/25 01:38:30;;;;;;;24.00;13.70;;;;;;;4.69;60.14;100271.28;4948643;28;36262;-94
2021/03/25 02:14:16;;;;;;;27.20;13.98;;;;;;;4.85;60.76;100260.03;4869608;29;33623;-90
2021/03/25 02:23:21;;;;;;;21.30;14.00;;;;;;;4.84;60.92;100263.72;5047238;27;34370;-93
2021/03/25 02:27:36;;;;;;;;;;;;;;;;;;;;;
2021/03/25 02:31:32;;;;;;;23.20;13.50;;;;;;;5.10;60.59;100258.66;5168071;27;20122;-89
2021/03/25 02:38:27;;;;;;;22.83;14.00;;;;;;;4.86;60.89;100248.34;5162332;27;34817;-89
2021/03/25 02:46:26;;;;;;;22.92;13.27;;;;;;;5.27;60.26;100259.81;5125515;27;34479;-89
2021/03/25 02:50:08;;;;;;;25.25;14.57;;;;;;;4.87;61.59;100260.75;5191827;27;33770;-89
2021/03/25 02:53:50;;;;;;;25.27;13.20;;;;;;;5.26;60.45;100258.13;5208368;27;34128;-94
2021/03/25 02:57:36;;;;;;;25.80;14.27;;;;;;;5.25;60.51;100259.94;5159354;27;34403;-93
2021/03/25 03:01:04;;;;;;;20.85;13.23;;;;;;;5.12;61.26;100257.53;5171169;27;34554;-89
2021/03/25 03:04:12;;;;;;;23.83;13.50;;;;;;;4.91;62.02;100254.13;5155858;27;35115;-89
2021/03/25 03:07:25;;;;;;;25.93;14.47;;;;;;;5.09;61.38;100252.47;5144737;27;34479;-88
2021/03/25 03:10:41;;;;;;;24.70;13.62;;;;;;;5.06;61.70;100251.88;5171503;27;32831;-89
2021/03/25 03:13:57;;;;;;;24.27;13.45;;;;;;;4.75;62.77;100254.66;5160059;27;32633;-94
2021/03/25 03:17:13;;;;;;;23.25;13.85;;;;;;;4.75;62.46;100266.22;5188556;27;33247;-93
2021/03/25 03:23:46;;;;;;;27.05;14.70;;;;;;;4.74;62.71;100275.22;5148257;27;35956;-88
2021/03/25 03:27:27;;;;;;;23.33;14.95;;;;;;;4.90;62.56;100257.78;5122578;28;33634;-89
2021/03/25 03:30:45;;;;;;;22.42;13.60;;;;;;;5.18;61.68;100253.47;5110065;28;34294;-92
2021/03/25 03:37:17;;;;;;;23.87;14.82;;;;;;;5.29;61.42;100257.84;5138534;27;34541;-88
2021/03/25 03:40:31;;;;;;;24.15;14.07;;;;;;;5.76;60.26;100259.78;5103467;27;34693;-89
2021/03/25 03:43:18;;;;;;;22.83;14.10;;;;;;;5.64;60.42;100261.75;5113731;27;35681;-92
2021/03/25 03:46:18;;;;;;;25.12;15.05;;;;;;;5.45;61.10;100255.44;5118712;27;33424;-92
2021/03/25 03:50:15;;;;;;;22.30;13.70;;;;;;;5.70;60.44;100258.50;5119840;27;33233;-93
2021/03/25 03:53:42;;;;;;;23.90;14.15;;;;;;;5.78;60.09;100269.38;5123997;27;34566;-94
2021/03/25 03:57:33;;;;;;;;;;;;;;;;;;;;;
2021/03/25 04:00:38;;;;;;;25.58;16.10;;;;;;;5.80;60.12;100271.91;5146997;27;36482;-88
2021/03/25 04:04:09;;;;;;;23.02;14.85;;;;;;;5.97;59.66;100265.84;5160415;27;32863;-88
2021/03/25 04:11:55;;;;;;;26.87;16.90;;;;;;;5.77;60.40;100261.47;5125171;27;34781;-88
2021/03/25 04:15:18;;;;;;;;;;;;;;;;;;;;;
2021/03/25 04:19:20;;;;;;;21.27;14.35;;;;;;;6.05;59.62;100269.62;5086378;28;34156;-89
2021/03/25 04:23:07;;;;;;;24.27;15.20;;;;;;;5.51;61.10;100264.75;5090774;28;33603;-93
2021/03/25 04:26:51;;;;;;;27.13;14.43;;;;;;;5.61;60.90;100268.28;5073325;28;36480;-89
2021/03/25 04:30:43;;;;;;;;;;;;;;;;;;;;;
2021/03/25 04:40:39;;;;;;;;;;;;;;;;;;;;;
2021/03/25 04:44:49;;;;;;;21.62;13.60;;;;;;;5.61;61.37;100276.31;5081897;28;36307;-90
2021/03/25 04:57:31;;;;;;;20.65;12.75;;;;;;;5.44;61.83;100280.53;5096981;28;34510;-88
2021/03/25 05:00:45;;;;;;;25.48;14.30;;;;;;;5.37;62.18;100281.25;5093576;28;34496;-91
2021/03/25 05:04:10;;;;;;;24.67;13.48;;;;;;;5.83;60.79;100288.56;5083559;28;34992;-89
2021/03/25 05:11:17;;;;;;;23.80;13.68;;;;;;;5.98;60.59;100289.00;5042264;28;34348;-90
2021/03/25 05:15:31;;;;;;;;;;;;;;;;;;;;;
2021/03/25 05:19:57;;;;;;;23.98;13.05;;;;;;;6.06;60.87;100290.12;5011347;28;20125;-92
2021/03/25 05:24:03;;;;;;;23.40;13.35;;;;;;;6.19;60.18;100294.16;5019152;28;35229;-89
2021/03/25 05:31:45;;;;;;;23.25;13.30;;;;;;;6.22;60.64;100297.56;4975654;28;34174;-88
2021/03/25 05:41:07;;;;;;;25.02;14.57;;;;;;;6.50;59.88;100304.69;5004054;28;34332;-92
2021/03/25 05:50:03;;;;;;;29.92;16.42;;;;;;;6.69;60.20;100305.56;4979635;28;33637;-91
2021/03/25 05:54:48;;;;;;;;;;;;;;;;;;;;;
2021/03/25 06:03:08;;;;;;;26.35;14.65;;;;;;;7.10;59.27;100313.31;5032604;28;34522;-89
2021/03/25 06:11:36;;;;;;;;;;;;;;;;;;;;;
2021/03/25 06:15:39;;;;;;;23.50;14.60;;;;;;;7.80;57.36;100321.56;5077573;28;35076;-91
2021/03/25 06:20:00;;;;;;;27.50;15.45;;;;;;;8.09;56.44;100321.25;5074803;28;33147;-91
2021/03/25 06:23:51;;;;;;;25.60;14.05;;;;;;;8.06;56.16;100318.03;5106160;28;33016;-89
2021/03/25 06:27:55;;;;;;;25.90;15.15;;;;;;;8.27;55.70;100323.91;5094521;28;37507;-89
2021/03/25 06:31:39;;;;;;;26.48;14.90;;;;;;;8.37;55.23;100328.34;5078703;28;33009;-91
2021/03/25 06:35:30;;;;;;;;;;;;;;;;;;;;;
2021/03/25 06:43:42;;;;;;;37.05;16.17;;;;;;;8.95;53.63;100338.47;4954518;28;33777;-92
2021/03/25 06:51:23;;;;;;;21.27;12.25;;;;;;;9.65;49.92;100331.87;5077661;28;32398;-90
2021/03/25 07:10:09;;;;;;;;;;;;;;;;;;;;;
2021/03/25 12:53:35;;;;;;;19.17;13.43;;;;;;;17.95;28.21;100148.69;5112987;27;35647;-92
2021/03/25 13:05:04;;;;;;;17.87;13.45;;;;;;;21.79;21.42;100122.13;5082010;28;20123;-93
2021/03/25 13:49:09;;;;;;;17.48;13.73;;;;;;;27.46;15.30;100070.19;5060694;28;20052;31
2021/03/25 13:57:01;;;;;;;;;;;;;;;;;;;;;
2021/03/25 14:04:02;;;;;;;16.70;13.62;;;;;;;27.78;14.96;100065.16;5043777;28;20136;-88
2021/03/25 14:07:37;;;;;;;17.55;13.95;;;;;;;25.63;16.37;100073.66;5091694;27;34186;31
2021/03/25 14:17:56;;;;;;;20.00;15.27;;;;;;;21.73;22.05;100068.13;5222099;27;20124;-89
2021/03/25 14:20:36;;;;;;;18.90;14.43;;;;;;;21.87;21.10;100057.56;5214410;27;33683;-90
2021/03/25 14:23:24;;;;;;;19.40;15.02;;;;;;;23.71;19.70;100063.28;5177263;27;34257;-88
2021/03/25 14:26:09;;;;;;;19.48;15.35;;;;;;;24.81;17.62;100060.66;5211990;27;37856;-91
2021/03/25 14:28:51;;;;;;;21.42;14.68;;;;;;;24.62;17.58;100055.66;5180799;27;34646;-88
2021/03/25 14:35:44;;;;;;;18.20;15.25;;;;;;;27.46;15.65;100049.94;5116491;27;20077;-87
2021/03/25 14:39:22;;;;;;;21.25;15.75;;;;;;;28.91;14.13;100051.72;5160670;27;34670;-93
2021/03/25 14:42:15;;;;;;;19.08;14.70;;;;;;;29.59;13.66;100039.16;5174124;27;34394;-93
2021/03/25 14:45:26;;;;;;;21.37;17.12;;;;;;;30.10;13.28;100040.94;5166967;27;34604;-94
2021/03/25 14:48:39;;;;;;;21.85;15.65;;;;;;;28.97;13.56;100040.22;5192391;27;36154;31
2021/03/25 14:56:07;;;;;;;21.23;16.10;;;;;;;28.47;14.33;100039.84;5107402;27;20146;-86
2021/03/25 14:59:47;;;;;;;22.55;18.60;;;;;;;30.07;13.21;100038.75;5081016;28;34214;-91
2021/03/25 15:06:40;;;;;;;22.73;16.83;;;;;;;29.29;14.13;100032.22;5070515;27;20120;-95
2021/03/25 15:10:01;;;;;;;20.00;17.48;;;;;;;29.85;13.24;100035.91;5059149;28;33573;-96
2021/03/25 15:13:48;;;;;;;17.77;14.95;;;;;;;28.42;14.33;100034.38;4985995;28;33284;-93
2021/03/25 15:16:44;;;;;;;21.65;17.40;;;;;;;30.21;13.16;100032.34;4992038;28;33425;-94
2021/03/25 15:27:43;;;;;;;19.33;16.23;;;;;;;29.95;13.04;100030.13;5056115;28;20064;-96
2021/03/25 15:35:03;;;;;;;;;;;;;;;;;;;;;
2021/03/25 15:38:26;;;;;;;26.33;16.83;;;;;;;27.07;15.24;100028.66;5130065;27;34306;-96
2021/03/25 15:42:22;;;;;;;26.10;16.87;;;;;;;26.71;15.84;100032.53;5154037;27;34214;-95
2021/03/25 15:57:32;;;;;;;24.20;17.00;;;;;;;25.60;17.10;100024.41;4997322;28;35911;-90
2021/03/25 16:00:49;;;;;;;23.35;17.67;;;;;;;26.06;17.23;100024.28;5031028;28;34802;-95
2021/03/25 16:12:13;;;;;;;23.15;17.60;;;;;;;24.56;18.85;100028.28;5202048;27;34301;-94
2021/03/25 16:15:51;;;;;;;27.23;19.02;;;;;;;24.05;18.71;100035.31;5156147;27;34324;-94
2021/03/25 16:19:19;;;;;;;28.33;19.80;;;;;;;22.77;20.06;100037.13;5160824;27;32864;-94
2021/03/25 16:23:12;;;;;;;28.00;20.15;;;;;;;21.95;21.18;100046.12;5154737;27;33689;-96
2021/03/25 16:26:53;;;;;;;24.23;18.02;;;;;;;21.30;21.85;100048.50;5131742;27;34496;-92
2021/03/25 16:34:20;;;;;;;27.08;19.23;;;;;;;19.14;24.68;100044.16;5034974;28;34017;-88
2021/03/25 16:37:40;;;;;;;31.20;20.30;;;;;;;18.22;26.02;100056.22;5100331;28;33643;-87
2021/03/25 16:42:32;;;;;;;;;;;;;;;;;;;;;
2021/03/25 16:53:48;;;;;;;29.37;17.55;;;;;;;15.40;31.60;100069.22;5150930;27;34308;-95
2021/03/25 16:58:09;;;;;;;31.77;18.40;;;;;;;14.96;32.37;100069.62;5162521;27;33998;-95
2021/03/25 17:01:57;;;;;;;35.42;19.60;;;;;;;14.22;34.17;100068.63;5172033;27;20075;-93
2021/03/25 17:05:26;;;;;;;36.58;21.20;;;;;;;14.16;34.40;100072.16;5144663;27;33904;-88
2021/03/25 17:08:19;;;;;;;31.60;18.62;;;;;;;13.79;34.82;100074.28;5155816;27;35066;-89
2021/03/25 17:11:12;;;;;;;23.30;15.25;;;;;;;13.23;36.09;100081.37;5153954;27;33551;-89
2021/03/25 17:19:19;;;;;;;33.03;16.20;;;;;;;13.07;36.52;100078.94;5145032;27;32670;-94
2021/03/25 17:23:18;;;;;;;23.55;15.13;;;;;;;12.15;38.48;100078.59;5074716;28;36262;-93
2021/03/25 17:27:07;;;;;;;;;;;;;;;11.33;39.63;100079.50;5126443;27;34508;-88
2021/03/25 17:30:50;;;;;;;26.52;14.60;;;;;;;10.83;40.57;100086.38;5123595;27;720612;-92
2021/03/25 17:34:13;;;;;;;29.65;16.10;;;;;;;10.62;40.91;100087.87;5155438;27;32927;-87
2021/03/25 17:37:36;;;;;;;;;;;;;;;;;;;;;
2021/03/25 17:40:46;;;;;;;22.58;14.85;;;;;;;10.24;40.96;100103.97;5113317;28;33617;-88
2021/03/25 17:47:42;;;;;;;24.77;16.15;;;;;;;9.79;41.40;100117.12;5175727;27;20815;-88
2021/03/25 17:51:55;;;;;;;27.95;16.85;;;;;;;9.67;41.54;100124.75;5114517;28;34332;-95
2021/03/25 17:56:54;;;;;;;30.95;18.37;;;;;;;9.59;41.96;100130.12;4964609;28;35414;-96
2021/03/25 18:00:48;;;;;;;27.92;16.98;;;;;;;9.10;43.22;100125.66;4890201;29;34610;-93
2021/03/25 18:05:03;;;;;;;32.33;17.30;;;;;;;9.10;43.15;100135.56;4859860;29;34102;-89
2021/03/25 18:10:35;;;;;;;;;;;;;;;;;;;;;
2021/03/25 18:14:20;;;;;;;32.97;17.90;;;;;;;8.65;43.47;100146.66;5220193;27;35865;-89
2021/03/25 18:22:43;;;;;;;33.95;18.98;;;;;;;7.76;45.92;100150.62;5081062;28;34083;-88
2021/03/25 18:26:35;;;;;;;33.38;18.10;;;;;;;7.76;45.62;100148.78;5067206;28;36053;-95
2021/03/25 18:35:32;;;;;;;32.10;18.12;;;;;;;7.73;45.68;100164.41;4991782;28;33885;-89
2021/03/25 19:13:33;;;;;;;;;;;;;;;;;;;;;
2021/03/25 19:16:59;;;;;;;38.83;20.35;;;;;;;5.19;52.39;100187.31;5256875;27;33505;-87
2021/03/25 19:24:52;;;;;;;34.58;18.80;;;;;;;5.08;53.05;100197.19;5181646;27;33858;-96
2021/03/25 19:28:30;;;;;;;35.70;19.25;;;;;;;5.11;52.35;100196.87;5171068;27;33537;-96
2021/03/25 19:32:38;;;;;;;38.75;22.33;;;;;;;5.20;52.32;100205.09;5231887;27;35973;-87
2021/03/25 19:36:02;;;;;;;49.45;28.23;;;;;;;5.33;51.32;100205.66;5153249;27;20185;-96
2021/03/25 19:39:41;;;;;;;47.17;24.37;;;;;;;5.03;51.57;100199.44;5136587;27;34370;-96
2021/03/25 19:47:57;;;;;;;54.38;29.87;;;;;;;4.60;53.40;100208.69;5107709;27;20086;-96
2021/03/25 19:51:20;;;;;;;43.95;24.83;;;;;;;4.55;53.17;100210.91;5066018;27;20108;-88
2021/03/25 19:58:38;;;;;;;37.65;19.35;;;;;;;4.35;54.16;100215.38;5043477;28;33587;-96
2021/03/25 20:02:05;;;;;;;41.70;20.92;;;;;;;4.23;54.47;100219.97;5052162;28;34357;-96
2021/03/25 20:06:17;;;;;;;34.65;19.20;;;;;;;4.56;53.82;100213.44;5019144;28;34939;-88
2021/03/25 20:10:03;;;;;;;34.72;19.75;;;;;;;4.54;53.66;100222.63;5060354;28;20057;-96
2021/03/25 20:14:18;;;;;;;36.85;19.92;;;;;;;4.44;53.42;100213.72;4995125;28;34240;-89
2021/03/25 20:17:48;;;;;;;35.90;19.17;;;;;;;4.58;53.16;100213.31;5061620;28;35529;-89
2021/03/25 20:21:11;;;;;;;;;;;;;;;;;;;;;
2021/03/25 20:25:41;;;;;;;37.47;16.87;;;;;;;4.49;53.36;100222.16;5100928;28;34060;-89
2021/03/25 20:36:15;;;;;;;34.25;19.08;;;;;;;3.46;56.10;100226.59;5115399;27;20162;-87
2021/03/25 20:39:42;;;;;;;40.17;19.67;;;;;;;3.43;56.27;100224.16;5112873;28;35262;-96
2021/03/25 20:43:13;;;;;;;36.40;17.75;;;;;;;3.82;55.04;100230.63;5072470;28;34305;-96
2021/03/25 20:46:27;;;;;;;36.45;18.17;;;;;;;3.32;57.10;100233.94;5086455;28;32787;-86
2021/03/25 20:49:49;;;;;;;31.08;17.02;;;;;;;3.66;55.74;100231.06;5109695;27;37391;-86
2021/03/25 20:53:05;;;;;;;34.08;18.50;;;;;;;3.52;56.31;100234.09;5168480;27;36811;-87
2021/03/25 20:56:11;;;;;;;35.78;17.52;;;;;;;3.37;56.71;100230.87;5141770;27;33477;-88
2021/03/25 20:59:30;;;;;;;34.65;19.85;;;;;;;3.62;55.85;100231.47;5154589;27;35923;-87
2021/03/25 21:02:48;;;;;;;35.78;18.20;;;;;;;3.71;55.49;100244.91;5103264;27;36351;-96
2021/03/25 21:06:07;;;;;;;35.97;18.23;;;;;;;3.63;55.58;100243.87;5131079;27;34840;-96
2021/03/25 21:09:22;;;;;;;;;;;;;;;;;;;;;
2021/03/25 21:12:58;;;;;;;33.67;18.27;;;;;;;3.54;56.27;100240.16;5134073;27;35430;-96
2021/03/25 21:16:52;;;;;;;29.48;16.08;;;;;;;3.55;55.91;100239.19;5136153;27;34700;-96
2021/03/25 21:20:29;;;;;;;32.15;17.02;;;;;;;3.71;55.32;100239.56;5080769;28;33455;-96
2021/03/25 21:24:10;;;;;;;32.78;17.52;;;;;;;3.88;54.73;100239.94;4976369;28;35756;-96
2021/03/25 21:28:25;;;;;;;32.50;17.25;;;;;;;3.68;54.96;100239.84;4948680;28;33547;-86
2021/03/25 21:33:08;;;;;;;;;;;;;;;;;;;;;
2021/03/25 21:44:18;;;;;;;;;;;;;;;;;;;;;
2021/03/25 21:50:36;;;;;;;36.55;17.60;;;;;;;3.14;57.02;100268.38;4986296;28;20127;-88
2021/03/25 22:08:08;;;;;;;36.47;17.77;;;;;;;2.93;57.84;100276.31;5103422;27;20043;-87
2021/03/25 22:12:15;;;;;;;33.17;17.08;;;;;;;2.93;58.12;100278.16;5051605;28;34899;-89
2021/03/25 22:57:10;;;;;;;38.20;19.48;;;;;;;2.72;57.19;100294.91;5242828;27;20537;-89
2021/03/25 23:05:44;;;;;;;;;;;;;;;;;;;;;
2021/03/25 23:18:24;;;;;;;;;;;;;;;;;;;;;
2021/03/25 23:55:12;;;;;;;;;;;;;;;;;;;;;
2021/03/25 23:59:02;;;;;;;34.60;17.48;;;;;;;2.48;57.60;100313.75;4940482;28;34387;-96
